sensor_id;sensor_type;location;lat;lon;timestamp;P1;durP1;ratioP1;P2;durP2;ratioP2
19645;SDS011;9971;52.446;13.452;2023-05-07T00:03:01;7.67;;;7.07;;
19645;SDS011;9971;52.446;13.452;2023-05-07T00:08:04;9.30;;;7.50;;
19645;SDS011;9971;52.446;13.452;2023-05-07T00:13:07;8.20;;;7.40;;
19645;SDS011;9971;52.446;13.452;2023-05-07T00:18:09;8.08;;;7.37;;
19645;SDS011;9971;52.446;13.452;2023-05-07T00:23:12;8.95;;;7.30;;
19645;SDS011;9971;52.446;13.452;2023-05-07T00:28:15;7.58;;;6.85;;
19645;SDS011;9971;52.446;13.452;2023-05-07T00:33:17;7.35;;;6.65;;
19645;SDS011;9971;52.446;13.452;2023-05-07T00:38:20;7.50;;;6.47;;
19645;SDS011;9971;52.446;13.452;2023-05-07T00:43:23;7.28;;;6.45;;
19645;SDS011;9971;52.446;13.452;2023-05-07T00:48:25;7.00;;;6.40;;
19645;SDS011;9971;52.446;13.452;2023-05-07T00:53:28;6.83;;;5.78;;
19645;SDS011;9971;52.446;13.452;2023-05-07T00:58:30;6.33;;;5.75;;
19645;SDS011;9971;52.446;13.452;2023-05-07T01:03:34;6.70;;;6.10;;
19645;SDS011;9971;52.446;13.452;2023-05-07T01:08:36;6.97;;;6.28;;
19645;SDS011;9971;52.446;13.452;2023-05-07T01:13:39;7.08;;;6.45;;
19645;SDS011;9971;52.446;13.452;2023-05-07T01:18:41;6.97;;;6.40;;
19645;SDS011;9971;52.446;13.452;2023-05-07T01:23:44;7.75;;;6.67;;
19645;SDS011;9971;52.446;13.452;2023-05-07T01:28:45;7.83;;;6.70;;
19645;SDS011;9971;52.446;13.452;2023-05-07T01:33:47;7.87;;;7.28;;
19645;SDS011;9971;52.446;13.452;2023-05-07T01:38:49;7.13;;;6.53;;
19645;SDS011;9971;52.446;13.452;2023-05-07T01:43:51;6.40;;;5.80;;
19645;SDS011;9971;52.446;13.452;2023-05-07T01:48:54;7.08;;;6.37;;
19645;SDS011;9971;52.446;13.452;2023-05-07T01:53:56;7.45;;;6.45;;
19645;SDS011;9971;52.446;13.452;2023-05-07T01:58:58;7.20;;;6.47;;
19645;SDS011;9971;52.446;13.452;2023-05-07T02:04:01;6.67;;;6.03;;
19645;SDS011;9971;52.446;13.452;2023-05-07T02:09:08;8.38;;;7.53;;
19645;SDS011;9971;52.446;13.452;2023-05-07T02:14:10;7.08;;;6.37;;
19645;SDS011;9971;52.446;13.452;2023-05-07T02:19:12;7.07;;;6.47;;
19645;SDS011;9971;52.446;13.452;2023-05-07T02:24:15;7.22;;;6.53;;
19645;SDS011;9971;52.446;13.452;2023-05-07T02:29:18;6.70;;;6.10;;
19645;SDS011;9971;52.446;13.452;2023-05-07T02:34:20;7.08;;;6.37;;
19645;SDS011;9971;52.446;13.452;2023-05-07T02:39:23;6.28;;;5.78;;
19645;SDS011;9971;52.446;13.452;2023-05-07T02:44:27;6.73;;;6.13;;
19645;SDS011;9971;52.446;13.452;2023-05-07T02:49:30;7.30;;;6.67;;
19645;SDS011;9971;52.446;13.452;2023-05-07T02:54:32;6.95;;;6.20;;
19645;SDS011;9971;52.446;13.452;2023-05-07T02:59:37;7.40;;;6.43;;
19645;SDS011;9971;52.446;13.452;2023-05-07T03:04:40;8.13;;;6.57;;
19645;SDS011;9971;52.446;13.452;2023-05-07T03:09:43;8.00;;;7.20;;
19645;SDS011;9971;52.446;13.452;2023-05-07T03:14:45;7.70;;;6.85;;
19645;SDS011;9971;52.446;13.452;2023-05-07T03:19:47;7.00;;;6.37;;
19645;SDS011;9971;52.446;13.452;2023-05-07T03:24:51;7.90;;;7.20;;
19645;SDS011;9971;52.446;13.452;2023-05-07T03:29:54;7.05;;;6.42;;
19645;SDS011;9971;52.446;13.452;2023-05-07T03:34:56;7.85;;;7.05;;
19645;SDS011;9971;52.446;13.452;2023-05-07T03:39:59;7.25;;;6.60;;
19645;SDS011;9971;52.446;13.452;2023-05-07T03:45:01;7.58;;;6.83;;
19645;SDS011;9971;52.446;13.452;2023-05-07T03:50:06;7.37;;;6.60;;
19645;SDS011;9971;52.446;13.452;2023-05-07T03:55:09;7.30;;;6.77;;
19645;SDS011;9971;52.446;13.452;2023-05-07T04:00:11;7.33;;;6.67;;
19645;SDS011;9971;52.446;13.452;2023-05-07T04:05:14;7.40;;;6.80;;
19645;SDS011;9971;52.446;13.452;2023-05-07T04:10:17;6.83;;;6.28;;
19645;SDS011;9971;52.446;13.452;2023-05-07T04:15:19;6.97;;;6.28;;
19645;SDS011;9971;52.446;13.452;2023-05-07T04:20:22;6.78;;;6.25;;
19645;SDS011;9971;52.446;13.452;2023-05-07T04:25:24;6.92;;;6.22;;
19645;SDS011;9971;52.446;13.452;2023-05-07T04:30:27;9.43;;;6.50;;
19645;SDS011;9971;52.446;13.452;2023-05-07T04:35:29;6.25;;;5.65;;
19645;SDS011;9971;52.446;13.452;2023-05-07T04:40:31;6.07;;;5.57;;
19645;SDS011;9971;52.446;13.452;2023-05-07T04:45:34;6.05;;;5.55;;
19645;SDS011;9971;52.446;13.452;2023-05-07T04:50:37;6.80;;;5.87;;
19645;SDS011;9971;52.446;13.452;2023-05-07T04:55:39;5.70;;;5.10;;
19645;SDS011;9971;52.446;13.452;2023-05-07T05:00:42;6.37;;;5.78;;
19645;SDS011;9971;52.446;13.452;2023-05-07T05:05:44;5.60;;;4.97;;
19645;SDS011;9971;52.446;13.452;2023-05-07T05:10:47;5.27;;;4.77;;
19645;SDS011;9971;52.446;13.452;2023-05-07T05:15:51;5.03;;;4.62;;
19645;SDS011;9971;52.446;13.452;2023-05-07T05:20:53;5.70;;;5.17;;
19645;SDS011;9971;52.446;13.452;2023-05-07T05:25:57;5.15;;;4.70;;
19645;SDS011;9971;52.446;13.452;2023-05-07T05:30:59;6.95;;;5.35;;
19645;SDS011;9971;52.446;13.452;2023-05-07T05:36:02;5.75;;;4.37;;
19645;SDS011;9971;52.446;13.452;2023-05-07T05:41:06;5.30;;;4.83;;
19645;SDS011;9971;52.446;13.452;2023-05-07T05:46:09;5.25;;;4.28;;
19645;SDS011;9971;52.446;13.452;2023-05-07T05:51:12;4.97;;;4.55;;
19645;SDS011;9971;52.446;13.452;2023-05-07T05:56:15;5.75;;;5.25;;
19645;SDS011;9971;52.446;13.452;2023-05-07T06:01:17;4.75;;;4.35;;
19645;SDS011;9971;52.446;13.452;2023-05-07T06:06:19;4.87;;;4.37;;
19645;SDS011;9971;52.446;13.452;2023-05-07T06:11:21;4.70;;;4.30;;
19645;SDS011;9971;52.446;13.452;2023-05-07T06:16:25;4.30;;;3.73;;
19645;SDS011;9971;52.446;13.452;2023-05-07T06:21:27;4.83;;;4.47;;
19645;SDS011;9971;52.446;13.452;2023-05-07T06:26:30;4.67;;;4.30;;
19645;SDS011;9971;52.446;13.452;2023-05-07T06:31:33;4.85;;;4.05;;
19645;SDS011;9971;52.446;13.452;2023-05-07T06:36:36;5.28;;;4.78;;
19645;SDS011;9971;52.446;13.452;2023-05-07T06:41:39;4.77;;;4.37;;
19645;SDS011;9971;52.446;13.452;2023-05-07T06:46:43;5.20;;;4.70;;
19645;SDS011;9971;52.446;13.452;2023-05-07T06:51:45;4.33;;;3.93;;
19645;SDS011;9971;52.446;13.452;2023-05-07T06:56:48;4.15;;;3.75;;
19645;SDS011;9971;52.446;13.452;2023-05-07T07:01:52;5.40;;;4.17;;
19645;SDS011;9971;52.446;13.452;2023-05-07T07:06:54;3.77;;;3.47;;
19645;SDS011;9971;52.446;13.452;2023-05-07T07:11:57;3.45;;;3.15;;
19645;SDS011;9971;52.446;13.452;2023-05-07T07:16:59;3.70;;;3.40;;
19645;SDS011;9971;52.446;13.452;2023-05-07T07:22:02;3.77;;;3.47;;
19645;SDS011;9971;52.446;13.452;2023-05-07T07:27:07;5.30;;;4.20;;
19645;SDS011;9971;52.446;13.452;2023-05-07T07:32:14;3.57;;;3.03;;
19645;SDS011;9971;52.446;13.452;2023-05-07T07:37:16;3.30;;;3.00;;
19645;SDS011;9971;52.446;13.452;2023-05-07T07:42:19;2.87;;;2.67;;
19645;SDS011;9971;52.446;13.452;2023-05-07T07:47:22;3.52;;;2.42;;
19645;SDS011;9971;52.446;13.452;2023-05-07T07:52:25;4.17;;;2.87;;
19645;SDS011;9971;52.446;13.452;2023-05-07T07:57:27;2.83;;;2.62;;
19645;SDS011;9971;52.446;13.452;2023-05-07T08:02:31;3.02;;;2.75;;
19645;SDS011;9971;52.446;13.452;2023-05-07T08:07:34;3.20;;;2.90;;
19645;SDS011;9971;52.446;13.452;2023-05-07T08:12:36;2.92;;;2.67;;
19645;SDS011;9971;52.446;13.452;2023-05-07T08:17:39;2.40;;;2.20;;
19645;SDS011;9971;52.446;13.452;2023-05-07T08:22:44;2.47;;;2.30;;
19645;SDS011;9971;52.446;13.452;2023-05-07T08:27:46;2.90;;;2.20;;
19645;SDS011;9971;52.446;13.452;2023-05-07T08:32:50;2.53;;;2.10;;
19645;SDS011;9971;52.446;13.452;2023-05-07T08:37:52;3.05;;;1.90;;
19645;SDS011;9971;52.446;13.452;2023-05-07T08:42:54;3.17;;;2.17;;
19645;SDS011;9971;52.446;13.452;2023-05-07T08:47:58;2.47;;;2.27;;
19645;SDS011;9971;52.446;13.452;2023-05-07T08:53:00;2.27;;;2.07;;
19645;SDS011;9971;52.446;13.452;2023-05-07T08:58:03;1.97;;;1.87;;
19645;SDS011;9971;52.446;13.452;2023-05-07T09:03:04;1.83;;;1.73;;
19645;SDS011;9971;52.446;13.452;2023-05-07T09:08:07;1.87;;;1.77;;
19645;SDS011;9971;52.446;13.452;2023-05-07T09:13:10;2.15;;;1.82;;
19645;SDS011;9971;52.446;13.452;2023-05-07T09:18:12;2.10;;;1.90;;
19645;SDS011;9971;52.446;13.452;2023-05-07T09:23:14;2.25;;;2.05;;
19645;SDS011;9971;52.446;13.452;2023-05-07T09:28:17;2.42;;;1.72;;
19645;SDS011;9971;52.446;13.452;2023-05-07T09:33:19;2.02;;;1.50;;
19645;SDS011;9971;52.446;13.452;2023-05-07T09:38:22;2.00;;;1.80;;
19645;SDS011;9971;52.446;13.452;2023-05-07T09:43:24;2.53;;;1.83;;
19645;SDS011;9971;52.446;13.452;2023-05-07T09:48:26;2.00;;;1.90;;
19645;SDS011;9971;52.446;13.452;2023-05-07T09:53:29;1.80;;;1.70;;
19645;SDS011;9971;52.446;13.452;2023-05-07T09:58:31;2.57;;;1.97;;
19645;SDS011;9971;52.446;13.452;2023-05-07T10:03:33;2.03;;;1.93;;
19645;SDS011;9971;52.446;13.452;2023-05-07T10:08:35;1.57;;;1.47;;
19645;SDS011;9971;52.446;13.452;2023-05-07T10:13:37;1.87;;;1.77;;
19645;SDS011;9971;52.446;13.452;2023-05-07T10:18:40;1.67;;;1.30;;
19645;SDS011;9971;52.446;13.452;2023-05-07T10:23:41;1.97;;;1.70;;
19645;SDS011;9971;52.446;13.452;2023-05-07T10:28:44;2.00;;;1.62;;
19645;SDS011;9971;52.446;13.452;2023-05-07T10:33:46;1.30;;;1.30;;
19645;SDS011;9971;52.446;13.452;2023-05-07T10:38:48;1.83;;;1.60;;
19645;SDS011;9971;52.446;13.452;2023-05-07T10:43:50;1.70;;;1.57;;
19645;SDS011;9971;52.446;13.452;2023-05-07T10:59:30;1.50;;;1.13;;
19645;SDS011;9971;52.446;13.452;2023-05-07T11:04:32;1.37;;;1.27;;
19645;SDS011;9971;52.446;13.452;2023-05-07T11:15:01;1.37;;;1.27;;
19645;SDS011;9971;52.446;13.452;2023-05-07T11:20:03;1.47;;;1.35;;
19645;SDS011;9971;52.446;13.452;2023-05-07T11:25:06;1.65;;;1.20;;
19645;SDS011;9971;52.446;13.452;2023-05-07T11:30:09;1.87;;;1.77;;
19645;SDS011;9971;52.446;13.452;2023-05-07T11:35:12;1.77;;;1.67;;
19645;SDS011;9971;52.446;13.452;2023-05-07T11:40:14;1.32;;;1.25;;
19645;SDS011;9971;52.446;13.452;2023-05-07T11:45:22;1.62;;;1.52;;
19645;SDS011;9971;52.446;13.452;2023-05-07T11:50:18;1.37;;;1.20;;
19645;SDS011;9971;52.446;13.452;2023-05-07T11:55:21;1.22;;;1.12;;
19645;SDS011;9971;52.446;13.452;2023-05-07T12:00:23;1.13;;;1.00;;
19645;SDS011;9971;52.446;13.452;2023-05-07T12:05:25;1.82;;;1.10;;
19645;SDS011;9971;52.446;13.452;2023-05-07T12:10:28;1.10;;;1.10;;
19645;SDS011;9971;52.446;13.452;2023-05-07T12:15:30;1.50;;;1.40;;
19645;SDS011;9971;52.446;13.452;2023-05-07T12:20:34;1.62;;;1.30;;
19645;SDS011;9971;52.446;13.452;2023-05-07T12:25:35;1.87;;;1.40;;
19645;SDS011;9971;52.446;13.452;2023-05-07T12:30:38;1.90;;;1.30;;
19645;SDS011;9971;52.446;13.452;2023-05-07T12:35:40;1.20;;;1.17;;
19645;SDS011;9971;52.446;13.452;2023-05-07T12:40:43;0.83;;;0.83;;
19645;SDS011;9971;52.446;13.452;2023-05-07T12:45:44;1.52;;;1.42;;
19645;SDS011;9971;52.446;13.452;2023-05-07T12:50:49;1.40;;;1.30;;
19645;SDS011;9971;52.446;13.452;2023-05-07T12:55:52;1.50;;;1.40;;
19645;SDS011;9971;52.446;13.452;2023-05-07T13:00:54;1.30;;;1.12;;
19645;SDS011;9971;52.446;13.452;2023-05-07T13:05:59;1.52;;;1.30;;
19645;SDS011;9971;52.446;13.452;2023-05-07T13:10:59;1.27;;;1.17;;
19645;SDS011;9971;52.446;13.452;2023-05-07T13:16:01;1.10;;;1.10;;
19645;SDS011;9971;52.446;13.452;2023-05-07T13:21:03;1.40;;;1.00;;
19645;SDS011;9971;52.446;13.452;2023-05-07T13:26:05;1.65;;;1.50;;
19645;SDS011;9971;52.446;13.452;2023-05-07T13:31:07;1.55;;;1.00;;
19645;SDS011;9971;52.446;13.452;2023-05-07T13:36:10;1.05;;;1.05;;
19645;SDS011;9971;52.446;13.452;2023-05-07T13:41:12;1.32;;;1.22;;
19645;SDS011;9971;52.446;13.452;2023-05-07T13:46:14;0.90;;;0.90;;
19645;SDS011;9971;52.446;13.452;2023-05-07T13:51:17;1.15;;;0.90;;
19645;SDS011;9971;52.446;13.452;2023-05-07T13:56:19;1.25;;;1.00;;
19645;SDS011;9971;52.446;13.452;2023-05-07T14:01:22;0.95;;;0.95;;
19645;SDS011;9971;52.446;13.452;2023-05-07T14:06:24;0.90;;;0.90;;
19645;SDS011;9971;52.446;13.452;2023-05-07T14:11:26;1.40;;;1.30;;
19645;SDS011;9971;52.446;13.452;2023-05-07T14:16:29;1.98;;;1.05;;
19645;SDS011;9971;52.446;13.452;2023-05-07T14:21:31;1.57;;;1.20;;
19645;SDS011;9971;52.446;13.452;2023-05-07T14:26:34;2.05;;;1.40;;
19645;SDS011;9971;52.446;13.452;2023-05-07T14:31:36;1.93;;;1.30;;
19645;SDS011;9971;52.446;13.452;2023-05-07T14:36:38;2.85;;;1.45;;
19645;SDS011;9971;52.446;13.452;2023-05-07T14:41:41;1.40;;;1.00;;
19645;SDS011;9971;52.446;13.452;2023-05-07T14:46:43;1.05;;;1.05;;
19645;SDS011;9971;52.446;13.452;2023-05-07T14:51:46;0.80;;;0.80;;
19645;SDS011;9971;52.446;13.452;2023-05-07T14:56:48;1.20;;;1.10;;
19645;SDS011;9971;52.446;13.452;2023-05-07T15:01:50;1.10;;;1.00;;
19645;SDS011;9971;52.446;13.452;2023-05-07T15:06:53;1.30;;;1.20;;
19645;SDS011;9971;52.446;13.452;2023-05-07T15:11:55;1.20;;;0.93;;
19645;SDS011;9971;52.446;13.452;2023-05-07T15:16:58;1.07;;;0.95;;
19645;SDS011;9971;52.446;13.452;2023-05-07T15:22:00;1.70;;;1.12;;
19645;SDS011;9971;52.446;13.452;2023-05-07T15:27:03;1.27;;;0.95;;
19645;SDS011;9971;52.446;13.452;2023-05-07T15:32:06;1.10;;;1.10;;
19645;SDS011;9971;52.446;13.452;2023-05-07T15:37:08;0.88;;;0.88;;
19645;SDS011;9971;52.446;13.452;2023-05-07T15:42:11;2.67;;;1.17;;
19645;SDS011;9971;52.446;13.452;2023-05-07T15:47:14;1.45;;;1.35;;
19645;SDS011;9971;52.446;13.452;2023-05-07T15:52:15;2.20;;;1.20;;
19645;SDS011;9971;52.446;13.452;2023-05-07T15:57:18;1.47;;;1.17;;
19645;SDS011;9971;52.446;13.452;2023-05-07T16:02:22;1.50;;;1.10;;
19645;SDS011;9971;52.446;13.452;2023-05-07T16:07:25;0.88;;;0.88;;
19645;SDS011;9971;52.446;13.452;2023-05-07T16:12:27;0.93;;;0.93;;
19645;SDS011;9971;52.446;13.452;2023-05-07T16:17:30;1.30;;;1.20;;
19645;SDS011;9971;52.446;13.452;2023-05-07T16:22:32;1.57;;;1.40;;
19645;SDS011;9971;52.446;13.452;2023-05-07T16:27:34;1.20;;;1.10;;
19645;SDS011;9971;52.446;13.452;2023-05-07T16:32:37;1.35;;;1.25;;
19645;SDS011;9971;52.446;13.452;2023-05-07T16:37:39;1.65;;;1.27;;
19645;SDS011;9971;52.446;13.452;2023-05-07T16:42:42;1.23;;;0.90;;
19645;SDS011;9971;52.446;13.452;2023-05-07T16:47:44;1.17;;;1.10;;
19645;SDS011;9971;52.446;13.452;2023-05-07T16:52:47;1.20;;;1.10;;
19645;SDS011;9971;52.446;13.452;2023-05-07T16:57:49;1.17;;;1.10;;
19645;SDS011;9971;52.446;13.452;2023-05-07T17:02:52;1.10;;;1.10;;
19645;SDS011;9971;52.446;13.452;2023-05-07T17:07:54;1.00;;;0.90;;
19645;SDS011;9971;52.446;13.452;2023-05-07T17:12:56;1.20;;;1.10;;
19645;SDS011;9971;52.446;13.452;2023-05-07T17:17:58;1.20;;;1.10;;
19645;SDS011;9971;52.446;13.452;2023-05-07T17:23:01;1.37;;;1.17;;
19645;SDS011;9971;52.446;13.452;2023-05-07T17:28:04;1.35;;;1.25;;
19645;SDS011;9971;52.446;13.452;2023-05-07T17:33:06;1.37;;;1.12;;
19645;SDS011;9971;52.446;13.452;2023-05-07T17:38:08;1.40;;;1.30;;
19645;SDS011;9971;52.446;13.452;2023-05-07T17:43:10;1.30;;;1.20;;
19645;SDS011;9971;52.446;13.452;2023-05-07T17:48:13;1.70;;;1.32;;
19645;SDS011;9971;52.446;13.452;2023-05-07T17:53:15;1.33;;;1.20;;
19645;SDS011;9971;52.446;13.452;2023-05-07T17:58:18;1.30;;;1.20;;
19645;SDS011;9971;52.446;13.452;2023-05-07T18:03:20;2.55;;;1.20;;
19645;SDS011;9971;52.446;13.452;2023-05-07T18:08:22;1.80;;;1.20;;
19645;SDS011;9971;52.446;13.452;2023-05-07T18:13:24;1.40;;;1.10;;
19645;SDS011;9971;52.446;13.452;2023-05-07T18:18:27;1.20;;;1.00;;
19645;SDS011;9971;52.446;13.452;2023-05-07T18:23:29;1.25;;;1.10;;
19645;SDS011;9971;52.446;13.452;2023-05-07T18:28:31;1.80;;;1.37;;
19645;SDS011;9971;52.446;13.452;2023-05-07T18:33:34;1.50;;;1.40;;
19645;SDS011;9971;52.446;13.452;2023-05-07T18:38:36;1.37;;;1.27;;
19645;SDS011;9971;52.446;13.452;2023-05-07T18:43:39;1.47;;;1.32;;
19645;SDS011;9971;52.446;13.452;2023-05-07T18:48:41;1.72;;;1.47;;
19645;SDS011;9971;52.446;13.452;2023-05-07T18:53:44;1.37;;;1.27;;
19645;SDS011;9971;52.446;13.452;2023-05-07T18:58:46;1.42;;;1.32;;
19645;SDS011;9971;52.446;13.452;2023-05-07T19:03:49;1.70;;;1.35;;
19645;SDS011;9971;52.446;13.452;2023-05-07T19:08:51;3.00;;;1.67;;
19645;SDS011;9971;52.446;13.452;2023-05-07T19:13:54;1.20;;;1.10;;
19645;SDS011;9971;52.446;13.452;2023-05-07T19:18:56;1.52;;;1.42;;
19645;SDS011;9971;52.446;13.452;2023-05-07T19:23:59;2.77;;;1.42;;
19645;SDS011;9971;52.446;13.452;2023-05-07T19:29:01;1.70;;;1.60;;
19645;SDS011;9971;52.446;13.452;2023-05-07T19:34:03;1.47;;;1.32;;
19645;SDS011;9971;52.446;13.452;2023-05-07T19:39:06;1.50;;;1.40;;
19645;SDS011;9971;52.446;13.452;2023-05-07T19:44:08;1.40;;;1.30;;
19645;SDS011;9971;52.446;13.452;2023-05-07T19:49:11;1.75;;;1.40;;
19645;SDS011;9971;52.446;13.452;2023-05-07T19:54:13;1.40;;;1.25;;
19645;SDS011;9971;52.446;13.452;2023-05-07T19:59:15;1.50;;;1.40;;
19645;SDS011;9971;52.446;13.452;2023-05-07T20:04:18;1.80;;;1.70;;
19645;SDS011;9971;52.446;13.452;2023-05-07T20:09:20;1.60;;;1.50;;
19645;SDS011;9971;52.446;13.452;2023-05-07T20:14:22;2.65;;;1.80;;
19645;SDS011;9971;52.446;13.452;2023-05-07T20:19:25;1.90;;;1.72;;
19645;SDS011;9971;52.446;13.452;2023-05-07T20:24:27;2.12;;;1.67;;
19645;SDS011;9971;52.446;13.452;2023-05-07T20:29:31;1.90;;;1.80;;
19645;SDS011;9971;52.446;13.452;2023-05-07T20:34:33;1.90;;;1.80;;
19645;SDS011;9971;52.446;13.452;2023-05-07T20:39:36;1.60;;;1.50;;
19645;SDS011;9971;52.446;13.452;2023-05-07T20:44:38;1.67;;;1.57;;
19645;SDS011;9971;52.446;13.452;2023-05-07T20:49:41;1.80;;;1.70;;
19645;SDS011;9971;52.446;13.452;2023-05-07T20:54:43;2.17;;;2.00;;
19645;SDS011;9971;52.446;13.452;2023-05-07T20:59:45;1.87;;;1.60;;
19645;SDS011;9971;52.446;13.452;2023-05-07T21:04:48;1.95;;;1.85;;
19645;SDS011;9971;52.446;13.452;2023-05-07T21:09:50;2.17;;;2.07;;
19645;SDS011;9971;52.446;13.452;2023-05-07T21:14:52;2.25;;;2.15;;
19645;SDS011;9971;52.446;13.452;2023-05-07T21:19:55;2.12;;;1.92;;
19645;SDS011;9971;52.446;13.452;2023-05-07T21:24:58;2.87;;;1.90;;
19645;SDS011;9971;52.446;13.452;2023-05-07T21:30:00;2.23;;;2.03;;
19645;SDS011;9971;52.446;13.452;2023-05-07T21:35:03;2.23;;;1.93;;
19645;SDS011;9971;52.446;13.452;2023-05-07T21:40:07;2.20;;;2.00;;
19645;SDS011;9971;52.446;13.452;2023-05-07T21:45:10;2.27;;;2.08;;
19645;SDS011;9971;52.446;13.452;2023-05-07T21:50:13;2.12;;;2.02;;
19645;SDS011;9971;52.446;13.452;2023-05-07T21:55:16;2.12;;;2.00;;
19645;SDS011;9971;52.446;13.452;2023-05-07T22:00:18;4.25;;;2.12;;
19645;SDS011;9971;52.446;13.452;2023-05-07T22:05:20;3.77;;;2.30;;
19645;SDS011;9971;52.446;13.452;2023-05-07T22:10:23;2.27;;;2.08;;
19645;SDS011;9971;52.446;13.452;2023-05-07T22:15:25;2.45;;;2.25;;
19645;SDS011;9971;52.446;13.452;2023-05-07T22:20:28;2.17;;;2.08;;
19645;SDS011;9971;52.446;13.452;2023-05-07T22:25:31;3.08;;;2.67;;
19645;SDS011;9971;52.446;13.452;2023-05-07T22:30:32;2.63;;;2.43;;
19645;SDS011;9971;52.446;13.452;2023-05-07T22:35:35;2.70;;;2.50;;
19645;SDS011;9971;52.446;13.452;2023-05-07T22:40:38;3.07;;;2.87;;
19645;SDS011;9971;52.446;13.452;2023-05-07T22:45:40;2.95;;;2.70;;
19645;SDS011;9971;52.446;13.452;2023-05-07T22:50:43;3.33;;;3.12;;
19645;SDS011;9971;52.446;13.452;2023-05-07T22:55:46;3.30;;;3.00;;
19645;SDS011;9971;52.446;13.452;2023-05-07T23:00:49;3.07;;;2.63;;
19645;SDS011;9971;52.446;13.452;2023-05-07T23:05:52;3.15;;;2.83;;
19645;SDS011;9971;52.446;13.452;2023-05-07T23:10:54;3.27;;;2.92;;
19645;SDS011;9971;52.446;13.452;2023-05-07T23:15:57;3.17;;;2.98;;
19645;SDS011;9971;52.446;13.452;2023-05-07T23:20:59;2.70;;;2.50;;
19645;SDS011;9971;52.446;13.452;2023-05-07T23:26:02;3.17;;;2.40;;
19645;SDS011;9971;52.446;13.452;2023-05-07T23:31:06;3.15;;;2.90;;
19645;SDS011;9971;52.446;13.452;2023-05-07T23:36:07;2.95;;;2.70;;
19645;SDS011;9971;52.446;13.452;2023-05-07T23:41:09;2.95;;;2.75;;
19645;SDS011;9971;52.446;13.452;2023-05-07T23:46:12;2.77;;;2.58;;
19645;SDS011;9971;52.446;13.452;2023-05-07T23:51:14;3.22;;;2.92;;
19645;SDS011;9971;52.446;13.452;2023-05-07T23:56:17;3.15;;;2.85;;
